Etusivu
METAR-TAF:

METAR-TAF

Lentoasemat :

Savoonga, Alaska, Yhdysvallat

Leveyspiiri: 63-41N, Pituuspiiri: 170-30W, korkeus merenpinnasta: 16 m

Tämänhetkinen sää

Tämä raportti tehtiin 50 minuuttia sitten, kello 06.56 UTC
Tuuli 16 kn pohjoisesta/koillisesta puuskistuen 21 kn:hen
Lämpötila -19°C
Kosteus 70%
Ilmanpaine 999 hPa
Näkyvyys: 14.5 km

METAR: PASA 200656Z AUTO 03016G21KT 9SM M19/M23 A2951 RMK AO2 SNE56 SLP993 P0000 T11941228 FZRANO $

Aika: 22:46 (07:46 UTC)


TAF: puuttuu

Säähavainnot ja -ennusteet yli 4000 lentoasemalta (METAR- ja TAF-raportit).

Käytössä olevat sääasemat on merkitty karttaan keltaisilla ja punaisilla pisteillä.

Aseta hiiri pisteen päälle nähdäksesi sääaseman nimen.

Klikkaa sitten nähdäksesi säähavainnot ja -ennusteet.

Kartan vaihtaminen: klikkaa mustalla rastilla varustettuja vihreitä pisteitä, niin voit zoomata sisään; viivalla varustettua vihreää pistettä, niin voit zoomata ulos tai vihreitä nuolia, niin pääset viereisille kartoille.


METAR-TAF: